createdAt,value
2022-11-16T00:00:20.675Z,110
2022-11-16T00:01:20.618Z,110
2022-11-16T00:02:20.430Z,110
2022-11-16T00:03:20.467Z,110
2022-11-16T00:04:20.712Z,110
2022-11-16T00:05:24.300Z,110
2022-11-16T00:06:19.828Z,110
2022-11-16T00:07:21.179Z,109
2022-11-16T00:08:18.976Z,109
2022-11-16T00:09:19.919Z,109
2022-11-16T00:10:20.310Z,109
2022-11-16T00:11:20.703Z,109
2022-11-16T00:12:20.861Z,109
2022-11-16T00:13:20.558Z,109
2022-11-16T00:14:19.942Z,109
2022-11-16T00:15:20.383Z,109
2022-11-16T00:16:20.722Z,109
2022-11-16T00:17:20.398Z,109
2022-11-16T00:18:20.672Z,109
2022-11-16T00:19:20.857Z,109
2022-11-16T00:20:20.083Z,109
2022-11-16T00:21:20.454Z,109
2022-11-16T00:22:20.939Z,109
2022-11-16T00:23:19.968Z,109
2022-11-16T00:24:20.424Z,109
2022-11-16T00:25:20.685Z,109
2022-11-16T00:26:20.029Z,109
2022-11-16T00:27:20.638Z,109
2022-11-16T00:28:20.925Z,109
2022-11-16T00:29:19.989Z,109
2022-11-16T00:30:20.000Z,109
2022-11-16T00:31:19.042Z,109
2022-11-16T00:32:19.447Z,109
2022-11-16T00:33:19.915Z,109
2022-11-16T00:34:20.113Z,109
2022-11-16T00:35:20.718Z,109
2022-11-16T00:36:20.269Z,109
2022-11-16T00:37:20.919Z,109
2022-11-16T00:38:20.214Z,109
2022-11-16T00:39:20.045Z,109
2022-11-16T00:40:20.445Z,109
2022-11-16T00:41:20.808Z,109
2022-11-16T00:42:20.203Z,109
2022-11-16T00:43:20.346Z,109
2022-11-16T00:44:20.713Z,109
2022-11-16T00:45:20.035Z,109
2022-11-16T00:46:20.346Z,109
2022-11-16T00:47:20.052Z,109
2022-11-16T00:48:20.451Z,109
2022-11-16T00:49:20.742Z,109
2022-11-16T00:50:20.027Z,109
2022-11-16T00:51:20.351Z,109
2022-11-16T00:52:19.849Z,109
2022-11-16T00:53:19.451Z,109
2022-11-16T00:54:20.738Z,109
2022-11-16T00:55:19.908Z,109
2022-11-16T00:56:20.370Z,109
2022-11-16T00:57:19.993Z,109
2022-11-16T00:58:20.257Z,109
2022-11-16T00:59:20.791Z,109
2022-11-16T01:00:20.467Z,109
2022-11-16T01:01:21.462Z,109
2022-11-16T01:02:20.241Z,109
2022-11-16T01:03:20.541Z,109
2022-11-16T01:04:20.230Z,109
2022-11-16T01:05:20.463Z,109
2022-11-16T01:06:20.016Z,109
2022-11-16T01:07:20.666Z,108
2022-11-16T01:08:20.739Z,108
2022-11-16T01:09:20.044Z,108
2022-11-16T01:10:20.416Z,108
2022-11-16T01:11:20.656Z,108
2022-11-16T01:12:20.085Z,108
2022-11-16T01:13:20.694Z,108
2022-11-16T01:14:19.278Z,108
2022-11-16T01:15:20.160Z,108
2022-11-16T01:16:19.158Z,108
2022-11-16T01:17:20.532Z,108
2022-11-16T01:18:20.745Z,108
2022-11-16T01:19:18.937Z,108
2022-11-16T01:20:20.934Z,108
2022-11-16T01:21:20.189Z,108
2022-11-16T01:22:20.193Z,108
2022-11-16T01:23:20.518Z,108
2022-11-16T01:24:20.304Z,108
2022-11-16T01:25:20.696Z,108
2022-11-16T01:26:20.840Z,108
2022-11-16T01:27:20.112Z,108
2022-11-16T01:28:20.081Z,108
2022-11-16T01:29:20.365Z,108
2022-11-16T01:30:20.947Z,108
2022-11-16T01:31:20.803Z,108
2022-11-16T01:32:20.393Z,108
2022-11-16T01:33:20.659Z,108
2022-11-16T01:34:19.223Z,108
2022-11-16T01:35:19.754Z,108
2022-11-16T01:36:19.965Z,108
2022-11-16T01:37:20.823Z,108
2022-11-16T01:38:20.602Z,108
2022-11-16T01:39:20.718Z,108
2022-11-16T01:40:20.604Z,108
2022-11-16T01:41:20.006Z,108
2022-11-16T01:42:20.379Z,108
2022-11-16T01:43:20.530Z,108
2022-11-16T01:44:20.694Z,108
2022-11-16T01:45:20.877Z,108
2022-11-16T01:46:20.528Z,108
2022-11-16T01:47:20.914Z,108
2022-11-16T01:48:20.486Z,108
2022-11-16T01:49:20.570Z,108
2022-11-16T01:50:20.940Z,108
2022-11-16T01:51:20.292Z,108
2022-11-16T01:52:20.036Z,108
2022-11-16T01:53:20.187Z,108
2022-11-16T01:54:20.773Z,108
2022-11-16T01:55:20.051Z,108
2022-11-16T01:56:20.156Z,108
2022-11-16T01:57:20.525Z,108
2022-11-16T01:58:19.851Z,108
2022-11-16T01:59:20.259Z,108
2022-11-16T02:00:20.692Z,108
2022-11-16T02:01:20.481Z,108
2022-11-16T02:02:18.983Z,108
2022-11-16T02:03:19.918Z,108
2022-11-16T02:04:20.744Z,108
2022-11-16T02:05:19.521Z,108
2022-11-16T02:06:20.611Z,108
2022-11-16T02:07:21.311Z,106
2022-11-16T02:08:20.205Z,106
2022-11-16T02:09:20.040Z,106
2022-11-16T02:10:20.264Z,106
2022-11-16T02:11:20.634Z,106
2022-11-16T02:12:20.320Z,106
2022-11-16T02:13:20.671Z,106
2022-11-16T02:14:20.179Z,106
2022-11-16T02:15:20.600Z,106
2022-11-16T02:16:20.438Z,106
2022-11-16T02:17:20.812Z,106
2022-11-16T02:18:20.192Z,106
2022-11-16T02:19:20.525Z,106
2022-11-16T02:20:20.001Z,106
2022-11-16T02:21:20.293Z,106
2022-11-16T02:22:20.635Z,106
2022-11-16T02:23:19.922Z,106
2022-11-16T02:24:20.291Z,106
2022-11-16T02:25:20.619Z,106
2022-11-16T02:26:19.999Z,106
2022-11-16T02:27:19.676Z,106
2022-11-16T02:28:19.762Z,106
2022-11-16T02:29:20.766Z,106
2022-11-16T02:30:20.608Z,106
2022-11-16T02:31:19.880Z,106
2022-11-16T02:32:20.720Z,106
2022-11-16T02:33:20.058Z,106
2022-11-16T02:34:20.892Z,106
2022-11-16T02:35:20.160Z,106
2022-11-16T02:36:20.330Z,106
2022-11-16T02:37:20.719Z,106
2022-11-16T02:38:20.736Z,106
2022-11-16T02:39:20.053Z,106
2022-11-16T02:40:20.778Z,106
2022-11-16T02:41:20.027Z,106
2022-11-16T02:42:20.526Z,106
2022-11-16T02:43:20.779Z,106
2022-11-16T02:44:20.445Z,106
2022-11-16T02:45:20.764Z,106
2022-11-16T02:46:20.562Z,106
2022-11-16T02:47:20.842Z,106
2022-11-16T02:48:20.181Z,106
2022-11-16T02:49:20.620Z,106
2022-11-16T02:50:19.290Z,106
2022-11-16T02:51:20.991Z,106
2022-11-16T02:52:19.311Z,106
2022-11-16T02:53:20.662Z,106
2022-11-16T02:54:19.848Z,106
2022-11-16T02:55:20.774Z,106
2022-11-16T02:56:20.169Z,106
2022-11-16T02:57:20.423Z,106
2022-11-16T02:58:20.290Z,106
2022-11-16T02:59:25.867Z,106
2022-11-16T03:00:20.844Z,106
2022-11-16T03:01:21.034Z,106
2022-11-16T03:02:20.717Z,106
2022-11-16T03:03:20.047Z,106
2022-11-16T03:04:20.147Z,106
2022-11-16T03:05:20.568Z,106
2022-11-16T03:06:20.925Z,106
2022-11-16T03:07:20.610Z,106
2022-11-16T03:08:20.898Z,106
2022-11-16T03:09:20.129Z,106
2022-11-16T03:10:20.114Z,106
2022-11-16T03:11:20.094Z,106
2022-11-16T03:12:20.405Z,106
2022-11-16T03:13:20.441Z,106
2022-11-16T03:14:19.949Z,106
2022-11-16T03:15:20.690Z,106
2022-11-16T03:16:20.652Z,106
2022-11-16T03:17:20.283Z,106
2022-11-16T03:18:20.357Z,106
2022-11-16T03:19:20.718Z,106
2022-11-16T03:20:20.284Z,106
2022-11-16T03:21:20.923Z,106
2022-11-16T03:22:20.381Z,106
2022-11-16T03:23:20.857Z,106
2022-11-16T03:24:20.056Z,106
2022-11-16T03:25:20.456Z,106
2022-11-16T03:26:20.764Z,106
2022-11-16T03:27:20.103Z,106
2022-11-16T03:28:20.690Z,106
2022-11-16T03:29:19.997Z,106
2022-11-16T03:30:26.039Z,106
2022-11-16T03:31:20.738Z,106
2022-11-16T03:32:20.000Z,106
2022-11-16T03:33:20.450Z,106
2022-11-16T03:34:20.778Z,106
2022-11-16T03:35:20.093Z,106
2022-11-16T03:36:20.258Z,106
2022-11-16T03:37:20.466Z,106
2022-11-16T03:38:19.804Z,106
2022-11-16T03:39:20.212Z,106
2022-11-16T03:40:20.399Z,106
2022-11-16T03:41:20.842Z,106
2022-11-16T03:42:20.870Z,106
2022-11-16T03:43:20.738Z,106
2022-11-16T03:44:20.673Z,106
2022-11-16T03:45:20.476Z,106
2022-11-16T03:46:20.185Z,106
2022-11-16T03:47:20.524Z,106
2022-11-16T03:48:20.811Z,106
2022-11-16T03:49:19.998Z,106
2022-11-16T03:50:20.317Z,106
2022-11-16T03:51:20.675Z,106
2022-11-16T03:52:20.465Z,106
2022-11-16T03:53:20.326Z,106
2022-11-16T03:54:20.621Z,106
2022-11-16T03:55:19.939Z,106
2022-11-16T03:56:20.508Z,106
2022-11-16T03:57:20.866Z,106
2022-11-16T03:58:20.186Z,106
2022-11-16T03:59:20.493Z,106
2022-11-16T04:00:20.449Z,106
2022-11-16T04:01:20.987Z,106
2022-11-16T04:02:20.579Z,106
2022-11-16T04:03:21.237Z,106
2022-11-16T04:04:19.484Z,106
2022-11-16T04:05:21.432Z,106
2022-11-16T04:06:20.208Z,106
2022-11-16T04:07:20.994Z,109
2022-11-16T04:08:20.340Z,109
2022-11-16T04:09:20.562Z,109
2022-11-16T04:10:20.638Z,109
2022-11-16T04:11:20.020Z,109
2022-11-16T04:12:20.289Z,109
2022-11-16T04:13:20.681Z,109
2022-11-16T04:14:20.095Z,109
2022-11-16T04:15:20.434Z,109
2022-11-16T04:16:20.729Z,109
2022-11-16T04:17:19.959Z,109
2022-11-16T04:18:20.229Z,109
2022-11-16T04:19:20.517Z,109
2022-11-16T04:20:19.946Z,109
2022-11-16T04:21:20.314Z,109
2022-11-16T04:22:20.349Z,109
2022-11-16T04:23:20.597Z,109
2022-11-16T04:24:19.912Z,109
2022-11-16T04:25:20.522Z,109
2022-11-16T04:26:20.707Z,109
2022-11-16T04:27:19.963Z,109
2022-11-16T04:28:20.415Z,109
2022-11-16T04:29:19.392Z,109
2022-11-16T04:30:20.911Z,109
2022-11-16T04:31:20.207Z,109
2022-11-16T04:32:20.601Z,109
2022-11-16T04:33:20.375Z,109
2022-11-16T04:34:20.799Z,109
2022-11-16T04:35:20.220Z,109
2022-11-16T04:36:27.007Z,109
2022-11-16T04:37:20.360Z,109
2022-11-16T04:38:20.051Z,109
2022-11-16T04:39:20.385Z,109
2022-11-16T04:40:20.063Z,109
2022-11-16T04:41:20.457Z,109
2022-11-16T04:42:20.749Z,109
2022-11-16T04:43:20.036Z,109
2022-11-16T04:44:20.397Z,109
2022-11-16T04:45:20.838Z,109
2022-11-16T04:46:20.872Z,109
2022-11-16T04:47:20.185Z,109
2022-11-16T04:48:20.485Z,109
2022-11-16T04:49:19.160Z,109
2022-11-16T04:50:20.571Z,109
2022-11-16T04:51:19.050Z,109
2022-11-16T04:52:20.424Z,109
2022-11-16T04:53:20.749Z,109
2022-11-16T04:54:19.909Z,109
2022-11-16T04:55:20.270Z,109
2022-11-16T04:56:20.854Z,109
2022-11-16T04:57:20.712Z,109
2022-11-16T04:58:20.032Z,109
2022-11-16T04:59:20.134Z,109
2022-11-16T05:00:20.487Z,109
2022-11-16T05:01:20.639Z,109
2022-11-16T05:02:20.475Z,109
2022-11-16T05:03:20.846Z,109
2022-11-16T05:04:20.135Z,109
2022-11-16T05:05:20.589Z,109
2022-11-16T05:06:19.979Z,109
2022-11-16T05:07:20.761Z,108
2022-11-16T05:08:20.534Z,108
2022-11-16T05:09:20.849Z,108
2022-11-16T05:10:20.191Z,108
2022-11-16T05:11:20.656Z,108
2022-11-16T05:12:20.989Z,108
2022-11-16T05:13:20.236Z,108
2022-11-16T05:14:20.594Z,108
2022-11-16T05:15:20.155Z,108
2022-11-16T05:16:19.770Z,108
2022-11-16T05:17:19.595Z,108
2022-11-16T05:18:20.890Z,108
2022-11-16T05:19:20.453Z,108
2022-11-16T05:20:20.755Z,108
2022-11-16T05:21:20.845Z,108
2022-11-16T05:22:20.475Z,108
2022-11-16T05:23:20.773Z,108
2022-11-16T05:24:20.180Z,108
2022-11-16T05:25:20.195Z,108
2022-11-16T05:26:20.530Z,108
2022-11-16T05:27:20.887Z,108
2022-11-16T05:28:20.224Z,108
2022-11-16T05:29:20.573Z,108
2022-11-16T05:30:20.945Z,108
2022-11-16T05:31:20.786Z,108
2022-11-16T05:32:20.159Z,108
2022-11-16T05:33:20.474Z,108
2022-11-16T05:34:20.759Z,108
2022-11-16T05:35:20.157Z,108
2022-11-16T05:36:20.461Z,108
2022-11-16T05:37:20.788Z,108
2022-11-16T05:38:20.157Z,108
2022-11-16T05:39:19.796Z,108
2022-11-16T05:40:19.872Z,108
2022-11-16T05:41:20.109Z,108
2022-11-16T05:42:20.470Z,108
2022-11-16T05:43:20.137Z,108
2022-11-16T05:44:18.955Z,108
2022-11-16T05:45:27.544Z,108
2022-11-16T05:46:20.653Z,108
2022-11-16T05:47:20.007Z,108
2022-11-16T05:48:20.548Z,108
2022-11-16T05:49:20.820Z,108
2022-11-16T05:50:20.224Z,108
2022-11-16T05:51:20.510Z,108
2022-11-16T05:52:20.889Z,108
2022-11-16T05:53:20.087Z,108
2022-11-16T05:54:20.465Z,108
2022-11-16T05:55:20.726Z,108
2022-11-16T05:56:20.354Z,108
2022-11-16T05:57:20.856Z,108
2022-11-16T05:58:20.170Z,108
2022-11-16T05:59:24.663Z,108
2022-11-16T06:00:20.957Z,108
2022-11-16T06:01:20.684Z,108
2022-11-16T06:02:20.297Z,108
2022-11-16T06:03:20.836Z,108
2022-11-16T06:04:27.487Z,108
2022-11-16T06:05:20.339Z,108
2022-11-16T06:06:20.262Z,108
2022-11-16T06:07:20.827Z,112
2022-11-16T06:08:20.114Z,112
2022-11-16T06:09:20.303Z,112
2022-11-16T06:10:19.961Z,112
2022-11-16T06:11:20.926Z,112
2022-11-16T06:12:20.236Z,112
2022-11-16T06:13:20.816Z,112
2022-11-16T06:14:20.161Z,112
2022-11-16T06:15:20.578Z,112
2022-11-16T06:16:21.992Z,112
2022-11-16T06:17:20.446Z,112
2022-11-16T06:18:20.664Z,112
2022-11-16T06:19:20.042Z,112
2022-11-16T06:20:20.472Z,112
2022-11-16T06:21:20.120Z,112
2022-11-16T06:22:20.307Z,112
2022-11-16T06:23:20.744Z,112
2022-11-16T06:24:20.112Z,112
2022-11-16T06:25:20.502Z,112
2022-11-16T06:26:20.846Z,112
2022-11-16T06:27:20.272Z,112
2022-11-16T06:28:20.652Z,112
2022-11-16T06:29:20.853Z,112
2022-11-16T06:30:20.685Z,112
2022-11-16T06:31:20.387Z,112
2022-11-16T06:32:22.291Z,112
2022-11-16T06:33:20.097Z,112
2022-11-16T06:34:20.704Z,112
2022-11-16T06:35:20.500Z,112
2022-11-16T06:36:21.003Z,112
2022-11-16T06:37:20.899Z,112
2022-11-16T06:38:20.245Z,112
2022-11-16T06:39:20.687Z,112
2022-11-16T06:40:20.938Z,112
2022-11-16T06:41:20.838Z,112
2022-11-16T06:42:20.326Z,112
2022-11-16T06:43:20.616Z,112
2022-11-16T06:44:20.012Z,112
2022-11-16T06:45:20.334Z,112
2022-11-16T06:46:20.664Z,112
2022-11-16T06:47:20.391Z,112
2022-11-16T06:48:21.977Z,112
2022-11-16T06:49:20.900Z,112
2022-11-16T06:50:20.334Z,112
2022-11-16T06:51:20.032Z,112
2022-11-16T06:52:19.892Z,112
2022-11-16T06:53:21.614Z,112
2022-11-16T06:54:20.404Z,112
2022-11-16T06:55:19.018Z,112
2022-11-16T06:56:20.379Z,112
2022-11-16T06:57:19.719Z,112
2022-11-16T06:58:20.357Z,112
2022-11-16T06:59:20.840Z,112
2022-11-16T07:00:20.006Z,112
2022-11-16T07:01:20.865Z,112
2022-11-16T07:02:20.848Z,112
2022-11-16T07:03:20.876Z,112
2022-11-16T07:04:21.260Z,112
2022-11-16T07:05:20.876Z,112
2022-11-16T07:06:20.110Z,112
2022-11-16T07:07:20.809Z,117
2022-11-16T07:08:20.842Z,117
2022-11-16T07:09:20.006Z,117
2022-11-16T07:10:20.346Z,117
2022-11-16T07:11:21.016Z,117
2022-11-16T07:12:20.290Z,117
2022-11-16T07:13:20.671Z,117
2022-11-16T07:14:20.063Z,117
2022-11-16T07:15:20.250Z,117
2022-11-16T07:16:20.479Z,117
2022-11-16T07:17:19.592Z,117
2022-11-16T07:18:20.952Z,117
2022-11-16T07:19:19.720Z,117
2022-11-16T07:20:21.534Z,117
2022-11-16T07:21:19.660Z,117
2022-11-16T07:22:20.720Z,117
2022-11-16T07:23:22.698Z,117
2022-11-16T07:24:20.301Z,117
2022-11-16T07:25:20.296Z,117
2022-11-16T07:26:21.408Z,117
2022-11-16T07:27:20.110Z,117
2022-11-16T07:28:20.492Z,117
2022-11-16T07:29:20.816Z,117
2022-11-16T07:30:20.174Z,117
2022-11-16T07:31:20.356Z,117
2022-11-16T07:32:20.650Z,117
2022-11-16T07:33:20.513Z,117
2022-11-16T07:34:20.789Z,117
2022-11-16T07:35:20.813Z,117
2022-11-16T07:36:20.966Z,117
2022-11-16T07:37:20.794Z,117
2022-11-16T07:38:26.171Z,117
2022-11-16T07:39:20.040Z,117
2022-11-16T07:40:20.348Z,117
2022-11-16T07:41:20.309Z,117
2022-11-16T07:42:21.043Z,117
2022-11-16T07:43:20.589Z,117
2022-11-16T07:44:20.889Z,117
2022-11-16T07:45:20.649Z,117
2022-11-16T07:46:53.430Z,117
2022-11-16T07:48:20.853Z,117
2022-11-16T07:49:20.580Z,117
2022-11-16T07:50:20.752Z,117
2022-11-16T07:51:20.124Z,117
2022-11-16T07:52:20.851Z,117
2022-11-16T07:53:20.835Z,117
2022-11-16T07:54:20.225Z,117
2022-11-16T07:55:20.669Z,117
2022-11-16T07:56:19.934Z,117
2022-11-16T07:57:20.724Z,117
2022-11-16T07:58:20.095Z,117
2022-11-16T07:59:20.571Z,117
2022-11-16T08:00:20.854Z,117
2022-11-16T08:01:20.629Z,117
2022-11-16T08:02:21.017Z,117
2022-11-16T08:03:26.694Z,117
2022-11-16T08:04:20.337Z,117
2022-11-16T08:05:20.813Z,117
2022-11-16T08:06:20.262Z,117
2022-11-16T08:07:21.030Z,120
2022-11-16T08:08:21.256Z,120
2022-11-16T08:09:19.789Z,120
2022-11-16T08:10:21.344Z,120
2022-11-16T08:11:21.070Z,120
2022-11-16T08:12:20.380Z,120
2022-11-16T08:13:20.773Z,120
2022-11-16T08:14:20.224Z,120
2022-11-16T08:15:20.795Z,120
2022-11-16T08:16:20.494Z,120
2022-11-16T08:17:20.195Z,120
2022-11-16T08:18:20.520Z,120
2022-11-16T08:19:20.265Z,120
2022-11-16T08:20:20.639Z,120
2022-11-16T08:21:20.624Z,120
2022-11-16T08:22:20.862Z,120
2022-11-16T08:23:20.668Z,120
2022-11-16T08:24:21.222Z,120
2022-11-16T08:25:20.192Z,120
2022-11-16T08:26:20.694Z,120
2022-11-16T08:27:20.084Z,120
2022-11-16T08:28:20.289Z,120
2022-11-16T08:29:20.698Z,120
2022-11-16T08:30:19.281Z,120
2022-11-16T08:31:20.699Z,120
2022-11-16T08:32:21.013Z,120
2022-11-16T08:33:20.279Z,120
2022-11-16T08:34:19.101Z,120
2022-11-16T08:35:20.315Z,120
2022-11-16T08:36:22.746Z,120
2022-11-16T08:37:20.584Z,120
2022-11-16T08:38:20.724Z,120
2022-11-16T08:39:20.305Z,120
2022-11-16T08:40:21.037Z,120
2022-11-16T08:41:20.442Z,120
2022-11-16T08:42:20.623Z,120
2022-11-16T08:43:20.792Z,120
2022-11-16T08:44:21.452Z,120
2022-11-16T08:45:20.832Z,120
2022-11-16T08:46:20.890Z,120
2022-11-16T08:47:20.367Z,120
2022-11-16T08:48:20.552Z,120
2022-11-16T08:49:20.302Z,120
2022-11-16T08:50:20.665Z,120
2022-11-16T08:51:29.294Z,120
2022-11-16T08:52:20.347Z,120
2022-11-16T08:53:20.582Z,120
2022-11-16T08:54:20.240Z,120
2022-11-16T08:55:20.529Z,120
2022-11-16T08:56:21.067Z,120
2022-11-16T08:57:19.258Z,120
2022-11-16T08:58:20.836Z,120
2022-11-16T08:59:20.132Z,120
2022-11-16T09:00:20.404Z,120
2022-11-16T09:01:19.499Z,120
2022-11-16T09:02:21.158Z,120
2022-11-16T09:03:20.135Z,120
2022-11-16T09:04:20.349Z,120
2022-11-16T09:05:20.608Z,120
2022-11-16T09:06:21.022Z,120
2022-11-16T09:07:20.762Z,117
2022-11-16T09:08:20.882Z,117
2022-11-16T09:09:20.636Z,117
2022-11-16T09:10:19.907Z,117
2022-11-16T09:11:20.128Z,117
2022-11-16T09:12:20.918Z,117
2022-11-16T09:13:20.014Z,117
2022-11-16T09:14:20.430Z,117
2022-11-16T09:15:20.259Z,117
2022-11-16T09:16:20.414Z,117
2022-11-16T09:17:27.595Z,117
2022-11-16T09:18:20.055Z,117
2022-11-16T09:19:20.321Z,117
2022-11-16T09:20:19.547Z,117
2022-11-16T09:21:20.035Z,117
2022-11-16T09:22:20.389Z,117
2022-11-16T09:23:28.152Z,117
2022-11-16T09:24:20.146Z,117
2022-11-16T09:25:20.157Z,117
2022-11-16T09:26:20.613Z,117
2022-11-16T09:27:20.924Z,117
2022-11-16T09:28:20.843Z,117
2022-11-16T09:29:20.232Z,117
2022-11-16T09:30:20.656Z,117
2022-11-16T09:31:28.117Z,117
2022-11-16T09:32:20.718Z,117
2022-11-16T09:33:20.679Z,117
2022-11-16T09:34:20.950Z,117
2022-11-16T09:35:20.857Z,117
2022-11-16T09:36:20.206Z,117
2022-11-16T09:37:20.210Z,117
2022-11-16T09:39:30.864Z,117
2022-11-16T09:39:39.329Z,117
2022-11-16T09:41:20.482Z,117
2022-11-16T09:42:20.779Z,117
2022-11-16T09:43:20.236Z,117
2022-11-16T09:44:20.126Z,117
2022-11-16T09:45:20.411Z,117
2022-11-16T09:46:19.285Z,117
2022-11-16T09:47:20.530Z,117
2022-11-16T09:48:20.932Z,117
2022-11-16T09:49:25.719Z,117
2022-11-16T09:50:20.942Z,117
2022-11-16T09:51:20.272Z,117
2022-11-16T09:52:20.617Z,117
2022-11-16T09:53:20.762Z,117
2022-11-16T09:54:20.889Z,117
2022-11-16T09:55:24.453Z,117
2022-11-16T09:56:27.083Z,117
2022-11-16T09:57:21.177Z,117
2022-11-16T09:58:20.622Z,117
2022-11-16T09:59:26.561Z,117
2022-11-16T10:00:20.637Z,117
2022-11-16T10:01:20.940Z,117
2022-11-16T10:02:20.702Z,117
2022-11-16T10:03:20.059Z,117
2022-11-16T10:04:20.379Z,117
2022-11-16T10:05:20.817Z,117
2022-11-16T10:06:19.895Z,117
2022-11-16T10:07:20.718Z,123
2022-11-16T10:08:19.508Z,123
2022-11-16T10:09:20.049Z,123
2022-11-16T10:10:20.957Z,123
2022-11-16T10:11:20.920Z,123
2022-11-16T10:12:20.161Z,123
2022-11-16T10:13:20.058Z,123
2022-11-16T10:14:20.371Z,123
2022-11-16T10:15:20.274Z,123
2022-11-16T10:16:20.923Z,123
2022-11-16T10:17:20.629Z,123
2022-11-16T10:18:20.494Z,123
2022-11-16T10:19:20.714Z,123
2022-11-16T10:20:21.212Z,123
2022-11-16T10:21:20.141Z,123
2022-11-16T10:22:20.536Z,123
2022-11-16T10:23:20.416Z,123
2022-11-16T10:24:20.606Z,123
2022-11-16T10:25:20.849Z,123
2022-11-16T10:26:20.201Z,123
2022-11-16T10:27:26.395Z,123
2022-11-16T10:28:20.175Z,123
2022-11-16T10:29:20.427Z,123
2022-11-16T10:30:20.819Z,123
2022-11-16T10:31:20.723Z,123
2022-11-16T10:32:20.450Z,123
2022-11-16T10:33:20.827Z,123
2022-11-16T10:34:21.011Z,123
2022-11-16T10:35:20.259Z,123
2022-11-16T10:36:20.670Z,123
2022-11-16T10:37:21.012Z,123
2022-11-16T10:38:20.187Z,123
2022-11-16T10:39:20.511Z,123
2022-11-16T10:40:20.791Z,123
2022-11-16T10:41:20.216Z,123
2022-11-16T10:42:20.405Z,123
2022-11-16T10:43:20.122Z,123
2022-11-16T10:44:20.201Z,123
2022-11-16T10:45:20.545Z,123
2022-11-16T10:46:20.806Z,123
2022-11-16T10:47:20.430Z,123
2022-11-16T10:48:21.095Z,123
2022-11-16T10:49:20.064Z,123
2022-11-16T10:50:20.552Z,123
2022-11-16T10:51:20.290Z,123
2022-11-16T10:52:20.623Z,123
2022-11-16T10:53:20.904Z,123
2022-11-16T10:54:20.315Z,123
2022-11-16T10:55:20.050Z,123
2022-11-16T10:56:20.549Z,123
2022-11-16T10:57:20.908Z,123
2022-11-16T10:58:20.156Z,123
2022-11-16T10:59:20.356Z,123
2022-11-16T11:00:28.298Z,123
2022-11-16T11:01:21.299Z,123
2022-11-16T11:02:20.347Z,123
2022-11-16T11:03:20.859Z,123
2022-11-16T11:04:21.036Z,123
2022-11-16T11:05:20.325Z,123
2022-11-16T11:06:20.208Z,123
2022-11-16T11:07:20.268Z,127
2022-11-16T11:08:20.676Z,127
2022-11-16T11:09:20.490Z,127
2022-11-16T11:10:20.377Z,127
2022-11-16T11:11:20.807Z,127
2022-11-16T11:12:20.120Z,127
2022-11-16T11:13:21.065Z,127
2022-11-16T11:14:20.403Z,127
2022-11-16T11:15:28.274Z,127
2022-11-16T11:16:20.986Z,127
2022-11-16T11:17:20.343Z,127
2022-11-16T11:18:20.613Z,127
2022-11-16T11:19:21.142Z,127
2022-11-16T11:20:21.356Z,127
2022-11-16T11:21:20.368Z,127
2022-11-16T11:22:20.933Z,127
2022-11-16T11:23:20.536Z,127
2022-11-16T11:24:51.989Z,127
2022-11-16T11:26:20.191Z,127
2022-11-16T11:27:20.543Z,127
2022-11-16T11:28:20.794Z,127
2022-11-16T11:29:19.387Z,127
2022-11-16T11:30:20.990Z,127
2022-11-16T11:31:21.005Z,127
2022-11-16T11:32:27.990Z,127
2022-11-16T11:33:20.484Z,127
2022-11-16T11:34:20.791Z,127
2022-11-16T11:35:20.956Z,127
2022-11-16T11:36:20.800Z,127
2022-11-16T11:37:20.632Z,127
2022-11-16T11:38:21.135Z,127
2022-11-16T11:39:21.024Z,127
2022-11-16T11:40:20.191Z,127
2022-11-16T11:41:20.344Z,127
2022-11-16T11:42:20.675Z,127
2022-11-16T11:43:27.030Z,127
2022-11-16T11:44:20.457Z,127
2022-11-16T11:45:20.840Z,127
2022-11-16T11:46:20.112Z,127
2022-11-16T11:48:06.687Z,127
2022-11-16T11:48:19.428Z,127
2022-11-16T11:49:20.919Z,127
2022-11-16T11:50:20.348Z,127
2022-11-16T11:51:20.787Z,127
2022-11-16T11:52:20.536Z,127
2022-11-16T11:53:20.697Z,127
2022-11-16T11:54:20.102Z,127
2022-11-16T11:55:20.570Z,127
2022-11-16T11:56:20.657Z,127
2022-11-16T11:57:20.864Z,127
2022-11-16T11:58:20.214Z,127
2022-11-16T11:59:20.789Z,127
2022-11-16T12:00:20.920Z,127
2022-11-16T12:01:27.685Z,127
2022-11-16T12:02:20.440Z,127
2022-11-16T12:03:21.035Z,127
2022-11-16T12:04:21.024Z,127
2022-11-16T12:05:20.420Z,127
2022-11-16T12:06:20.827Z,127
2022-11-16T12:07:20.909Z,127
2022-11-16T12:08:20.953Z,127
2022-11-16T12:09:20.174Z,127
2022-11-16T12:10:20.484Z,127
2022-11-16T12:11:20.534Z,127
2022-11-16T12:12:23.250Z,127
2022-11-16T12:13:21.029Z,127
2022-11-16T12:14:20.413Z,127
2022-11-16T12:15:20.679Z,127
2022-11-16T12:16:20.364Z,127
2022-11-16T12:17:20.350Z,127
2022-11-16T12:18:19.829Z,127
2022-11-16T12:19:20.592Z,127
2022-11-16T12:20:20.842Z,127
2022-11-16T12:21:20.549Z,127
2022-11-16T12:22:20.565Z,127
2022-11-16T12:23:20.371Z,127
2022-11-16T12:24:20.810Z,127
2022-11-16T12:25:20.834Z,127
2022-11-16T12:26:20.127Z,127
2022-11-16T12:27:20.378Z,127
2022-11-16T12:28:20.035Z,127
2022-11-16T12:29:20.946Z,127
2022-11-16T12:30:20.289Z,127
2022-11-16T12:31:20.327Z,127
2022-11-16T12:32:20.820Z,127
2022-11-16T12:33:20.092Z,127
2022-11-16T12:34:20.445Z,127
2022-11-16T12:35:20.934Z,127
2022-11-16T12:36:20.127Z,127
2022-11-16T12:37:20.465Z,127
2022-11-16T12:38:28.506Z,127
2022-11-16T12:39:20.454Z,127
2022-11-16T12:40:19.596Z,127
2022-11-16T12:41:19.354Z,127
2022-11-16T12:42:20.858Z,127
2022-11-16T12:43:20.558Z,127
2022-11-16T12:44:21.079Z,127
2022-11-16T12:45:21.099Z,127
2022-11-16T12:46:20.392Z,127
2022-11-16T12:47:20.367Z,127
2022-11-16T12:48:20.783Z,127
2022-11-16T12:49:20.284Z,127
2022-11-16T12:50:20.865Z,127
2022-11-16T12:51:20.340Z,127
2022-11-16T12:52:21.015Z,127
2022-11-16T12:53:20.403Z,127
2022-11-16T12:54:20.760Z,127
2022-11-16T12:55:35.148Z,127
2022-11-16T12:56:20.372Z,127
2022-11-16T12:57:20.614Z,127
2022-11-16T12:58:20.906Z,127
2022-11-16T12:59:20.675Z,127
2022-11-16T13:00:20.843Z,127
2022-11-16T13:01:21.224Z,127
2022-11-16T13:02:20.265Z,127
2022-11-16T13:03:20.754Z,127
2022-11-16T13:04:19.614Z,127
2022-11-16T13:05:19.180Z,127
2022-11-16T13:06:20.202Z,127
2022-11-16T13:07:21.418Z,116
2022-11-16T13:08:21.009Z,116
2022-11-16T13:09:20.859Z,116
2022-11-16T13:10:20.761Z,116
2022-11-16T13:11:20.816Z,116
2022-11-16T13:12:20.921Z,116
2022-11-16T13:13:58.146Z,116
2022-11-16T13:14:20.731Z,116
2022-11-16T13:15:20.625Z,116
2022-11-16T13:16:21.210Z,116
2022-11-16T13:17:20.752Z,116
2022-11-16T13:18:21.093Z,116
2022-11-16T13:19:20.807Z,116
2022-11-16T13:20:23.480Z,116
2022-11-16T13:21:20.563Z,116
2022-11-16T13:22:20.946Z,116
2022-11-16T13:23:20.978Z,116
2022-11-16T13:24:20.385Z,116
2022-11-16T13:25:20.142Z,116
2022-11-16T13:26:19.758Z,116
2022-11-16T13:27:20.461Z,116
2022-11-16T13:28:20.476Z,116
2022-11-16T13:29:20.294Z,116
2022-11-16T13:30:21.026Z,116
2022-11-16T13:31:20.265Z,116
2022-11-16T13:32:20.832Z,116
2022-11-16T13:33:20.964Z,116
2022-11-16T13:34:20.687Z,116
2022-11-16T13:35:20.527Z,116
2022-11-16T13:36:20.600Z,116
2022-11-16T13:37:20.542Z,116
2022-11-16T13:38:20.894Z,116
2022-11-16T13:39:28.852Z,116
2022-11-16T13:40:20.083Z,116
2022-11-16T13:41:21.135Z,116
2022-11-16T13:42:20.489Z,116
2022-11-16T13:43:20.865Z,116
2022-11-16T13:44:21.025Z,116
2022-11-16T13:45:20.323Z,116
2022-11-16T13:47:02.339Z,116
2022-11-16T13:47:20.491Z,116
2022-11-16T13:48:20.749Z,116
2022-11-16T13:49:19.443Z,116